Data for 11/14/2009

Time Sea-Level Adjusted Pressure Absolute Pressure Temperature Relative Humidity Dew Point   
(mb) (inHg) (mb) (inHg) (C) (F) (%) (C) (F)
00:05 1010 29.83 839 24.78 -8.5 16.8 78 -11.6 11
00:10 1010 29.83 840 24.81 -8.4 16.9 78 -11.6 11.1
00:15 1010 29.83 840 24.81 -8.2 17.2 76 -11.6 11
00:20 1010 29.83 840 24.81 -8 17.5 75 -11.8 10.8
00:25 1010 29.83 840 24.81 -8.2 17.3 77 -11.6 11.2
00:30 1010 29.83 840 24.81 -8.4 16.9 77 -11.8 10.8
00:35 1010 29.83 840 24.81 -8.3 17.1 78 -11.5 11.3
00:40 1010 29.83 840 24.81 -8.3 17.1 78 -11.4 11.4
00:45 1010 29.83 840 24.81 -8.4 16.9 78 -11.6 11.2
00:50 1011 29.85 840 24.81 -8.5 16.7 79 -11.6 11.2
00:55 1010 29.83 840 24.81 -8.4 17 79 -11.4 11.4
01:00 1010 29.83 840 24.81 -8.4 17 79 -11.4 11.5
01:05 1010 29.83 840 24.81 -8.8 16.2 80 -11.6 11.2
01:10 1010 29.83 840 24.81 -8.9 15.9 80 -11.8 10.8
01:15 1011 29.85 840 24.81 -8.8 16.2 81 -11.4 11.4
01:20 1011 29.85 840 24.81 -8.6 16.5 80 -11.4 11.5
01:25 1011 29.85 840 24.81 -8.5 16.8 80 -11.3 11.7
01:30 1011 29.85 840 24.81 -8 17.5 79 -11.1 12
01:35 1011 29.85 840 24.81 -7.7 18.1 78 -11 12.3
01:40 1011 29.85 840 24.81 -7.6 18.4 78 -10.7 12.7
01:45 1011 29.85 840 24.81 -7.9 17.7 80 -10.8 12.6
01:50 1011 29.85 840 24.81 -8.5 16.8 82 -11.1 12.1
01:55 1011 29.85 840 24.81 -8.8 16.2 82 -11.3 11.7
02:00 1011 29.85 840 24.81 -8.7 16.3 83 -11.2 11.9
02:05 1011 29.85 840 24.81 -8.4 16.8 80 -11.3 11.6
02:10 1011 29.85 840 24.81 -8.2 17.3 80 -11.1 12
02:15 1011 29.85 840 24.81 -8 17.7 80 -10.9 12.5
02:20 1011 29.85 840 24.81 -7.7 18.1 78 -10.8 12.5
02:25 1011 29.85 840 24.81 -7.6 18.3 79 -10.7 12.8
02:30 1011 29.85 840 24.81 -7.7 18.2 79 -10.6 12.9
02:35 1011 29.85 840 24.81 -7.6 18.3 79 -10.7 12.7
02:40 1011 29.85 840 24.81 -7.5 18.5 80 -10.3 13.4
02:45 1011 29.85 840 24.81 -7.7 18.1 80 -10.6 12.9
02:50 1011 29.85 840 24.81 -7.8 17.9 80 -10.6 12.8
02:55 1011 29.85 840 24.81 -7.7 18.1 80 -10.6 13
03:00 1011 29.85 840 24.81 -8 17.7 83 -10.4 13.2
03:05 1011 29.85 840 24.81 -7.9 17.8 81 -10.6 13
03:10 1011 29.85 841 24.83 -7.7 18.1 79 -10.7 12.7
03:15 1011 29.85 841 24.83 -7.6 18.3 81 -10.4 13.3
03:20 1011 29.85 841 24.83 -7.6 18.3 82 -10.2 13.6
03:25 1012 29.88 841 24.83 -7.7 18.2 83 -10.1 13.8
03:30 1012 29.88 841 24.83 -7.6 18.3 81 -10.4 13.3
03:35 1012 29.88 841 24.83 -7.5 18.4 80 -10.4 13.2
03:40 1012 29.88 841 24.83 -7.6 18.3 79 -10.7 12.8
03:45 1012 29.88 841 24.83 -7.6 18.4 80 -10.5 13.1
03:50 1012 29.88 841 24.83 -7.6 18.4 81 -10.3 13.5
03:55 1012 29.88 841 24.83 -7.6 18.4 81 -10.3 13.4
04:00 1012 29.88 841 24.83 -7.6 18.2 81 -10.3 13.4
04:05 1012 29.88 841 24.83 -7.5 18.5 81 -10.3 13.5
04:10 1012 29.88 841 24.83 -7.5 18.5 81 -10.3 13.5
04:15 1012 29.88 841 24.83 -7.5 18.4 80 -10.4 13.3
04:20 1012 29.88 841 24.83 -7.4 18.7 81 -10.2 13.7
04:25 1012 29.88 841 24.83 -7.3 18.8 80 -10.2 13.7
04:30 1012 29.88 841 24.83 -7.1 19.2 80 -10.1 13.9
04:35 1012 29.88 841 24.83 -7 19.4 79 -10.1 13.7
04:40 1012 29.88 841 24.83 -6.8 19.8 78 -10 14
04:45 1012 29.88 841 24.83 -6.7 19.9 79 -9.8 14.4
04:50 1012 29.88 841 24.83 -6.6 20.1 78 -9.8 14.4
04:55 1012 29.88 841 24.83 -6.9 19.6 80 -9.8 14.4
05:00 1012 29.88 842 24.86 -7 19.3 80 -10 14
05:05 1012 29.88 842 24.86 -7.2 19 82 -9.8 14.4
05:10 1012 29.88 842 24.86 -7.3 19 82 -9.8 14.4
05:15 1012 29.88 842 24.86 -7.4 18.8 83 -9.8 14.3
05:20 1012 29.88 842 24.86 -7.5 18.5 84 -9.8 14.4
05:25 1012 29.88 842 24.86 -7.8 17.9 84 -10.1 13.8
05:30 1012 29.88 842 24.86 -7.8 17.9 83 -10.3 13.5
05:35 1013 29.91 842 24.86 -7.6 18.2 82 -10.2 13.7
05:40 1013 29.91 842 24.86 -7.6 18.4 83 -9.9 14.1
05:45 1013 29.91 842 24.86 -7.4 18.6 83 -9.9 14.2
05:50 1013 29.91 842 24.86 -7.4 18.6 83 -9.8 14.3
05:55 1013 29.91 842 24.86 -7.4 18.6 84 -9.7 14.6
06:00 1013 29.91 842 24.86 -7.5 18.4 82 -10.1 13.8
06:05 1013 29.91 842 24.86 -7.4 18.6 82 -10 13.9
06:10 1013 29.91 842 24.86 -7.6 18.3 83 -10 13.9
06:15 1013 29.91 842 24.86 -7.7 18.1 83 -10.1 13.9
06:20 1013 29.91 842 24.86 -7.9 17.8 83 -10.3 13.4
06:25 1013 29.91 842 24.86 -7.8 17.9 82 -10.4 13.2
06:30 1013 29.91 842 24.86 -7.4 18.7 80 -10.2 13.6
06:35 1013 29.91 842 24.86 -7.4 18.7 83 -9.8 14.3
06:40 1013 29.91 842 24.86 -7.5 18.6 81 -10.2 13.7
06:45 1013 29.91 842 24.86 -7.2 19 80 -10 13.9
06:50 1013 29.91 842 24.86 -6.8 19.8 78 -10 13.9
06:55 1013 29.91 842 24.86 -6.6 20.1 78 -9.8 14.4
07:00 1013 29.91 843 24.89 -6.6 20.1 79 -9.7 14.6
07:05 1013 29.91 843 24.89 -6.7 20 80 -9.7 14.6
07:10 1014 29.94 843 24.89 -6.6 20.1 80 -9.5 15
07:15 1014 29.94 843 24.89 -6.6 20.2 80 -9.4 15.1
07:20 1014 29.94 843 24.89 -6.7 20 82 -9.2 15.4
07:25 1014 29.94 843 24.89 -6.5 20.3 82 -9.1 15.5
07:30 1014 29.94 843 24.89 -6.3 20.7 80 -9.1 15.5
07:35 1014 29.94 843 24.89 -6.9 19.6 83 -9.3 15.2
07:40 1014 29.94 843 24.89 -6.8 19.7 82 -9.4 15
07:45 1014 29.94 843 24.89 -6.6 20.1 81 -9.3 15.2
07:50 1014 29.94 843 24.89 -6.6 20.1 82 -9.2 15.4
07:55 1014 29.94 843 24.89 -6.6 20.1 82 -9.2 15.4
08:00 1014 29.94 844 24.92 -6.7 19.9 83 -9.2 15.5
08:05 1014 29.94 844 24.92 -6.9 19.5 84 -9.2 15.4
08:10 1014 29.94 844 24.92 -7 19.4 84 -9.2 15.4
08:15 1014 29.94 844 24.92 -6.9 19.6 84 -9.2 15.4
08:20 1014 29.94 844 24.92 -7 19.4 85 -9.1 15.5
08:25 1015 29.97 844 24.92 -7 19.4 83 -9.4 15.1
08:30 1015 29.97 844 24.92 -6.9 19.5 83 -9.3 15.2
08:35 1015 29.97 844 24.92 -6.7 19.9 81 -9.5 15
08:40 1015 29.97 844 24.92 -6.5 20.2 81 -9.4 15.1
08:45 1015 29.97 844 24.92 -6.5 20.4 81 -9.2 15.4
08:50 1015 29.97 844 24.92 -6.4 20.5 81 -9.1 15.6
08:55 1015 29.97 844 24.92 -6.4 20.5 82 -9 15.8
09:00 1015 29.97 844 24.92 -6.4 20.5 81 -9.1 15.6
09:05 1015 29.97 844 24.92 -6.1 21 79 -9.2 15.5
09:10 1015 29.97 844 24.92 -5.6 21.8 76 -9.1 15.5
09:15 1015 29.97 844 24.92 -5.4 22.2 78 -8.7 16.4
09:20 1015 29.97 844 24.92 -5.7 21.8 78 -9 15.8
09:25 1015 29.97 845 24.95 -5.1 22.8 74 -9.1 15.6
09:30 1015 29.97 845 24.95 -4.4 24.1 72 -8.7 16.3
09:35 1015 29.97 845 24.95 -3.9 25 73 -8 17.6
09:40 1016 30 845 24.95 -3.8 25.2 72 -8.1 17.4
09:45 1016 30 845 24.95 -3.7 25.4 72 -8 17.5
09:50 1016 30 845 24.95 -3.8 25.1 73 -7.9 17.8
09:55 1016 30 845 24.95 -4.2 24.5 74 -8.1 17.4
10:00 1016 30 845 24.95 -3.9 25 71 -8.4 16.9
10:05 1016 30 845 24.95 -3.4 25.9 71 -7.8 17.9
10:10 1016 30 845 24.95 -3.3 26 71 -7.9 17.8
10:15 1016 30 845 24.95 -3.1 26.4 70 -7.8 18
10:20 1016 30 845 24.95 -2.3 27.8 67 -7.7 18.1
10:25 1016 30 845 24.95 -2.2 28 70 -7.1 19.3
10:30 1016 30 845 24.95 -3.8 25.2 75 -7.6 18.4
10:35 1016 30 845 24.95 -4.1 24.7 73 -8.2 17.2
10:40 1016 30 845 24.95 -4 24.8 74 -8 17.6
10:45 1016 30 845 24.95 -4.1 24.6 74 -8.1 17.3
10:50 1016 30 845 24.95 -3.8 25.2 72 -8.1 17.4
10:55 1016 30 845 24.95 -3.5 25.7 70 -8.2 17.2
11:00 1016 30 845 24.95 -2.1 28.3 62 -8.4 16.8
11:05 1016 30 845 24.95 -1.2 29.8 63 -7.4 18.7
11:10 1016 30 845 24.95 -0.7 30.8 61 -7.4 18.8
11:15 1016 30 845 24.95 0.1 32.1 57 -7.5 18.4
11:20 1016 30 846 24.98 0.5 32.9 58 -6.8 19.7
11:25 1017 30.03 846 24.98 -0.2 31.6 63 -6.5 20.3
11:30 1017 30.03 846 24.98 -0.8 30.6 65 -6.6 20.2
11:35 1017 30.03 846 24.98 -0.7 30.7 66 -6.4 20.5
11:40 1017 30.03 846 24.98 -0.5 31.2 64 -6.4 20.6
11:45 1017 30.03 846 24.98 -0.8 30.5 65 -6.5 20.2
11:50 1017 30.03 846 24.98 -0.5 31.2 61 -7 19.3
11:55 1017 30.03 846 24.98 0.2 32.4 62 -6.2 20.9
12:00 1017 30.03 846 24.98 -0.6 30.9 65 -6.3 20.6
12:05 1017 30.03 846 24.98 -1.1 30.1 65 -6.8 19.8
12:10 1017 30.03 846 24.98 -1.2 29.8 68 -6.3 20.6
12:15 1017 30.03 846 24.98 -1 30.3 66 -6.5 20.3
12:20 1017 30.03 846 24.98 -0.6 30.9 65 -6.4 20.5
12:25 1017 30.03 846 24.98 -0.4 31.3 65 -6.2 20.8
12:30 1017 30.03 846 24.98 -0.3 31.5 64 -6.3 20.7
12:35 1017 30.03 846 24.98 -0.9 30.4 67 -6.3 20.7
12:40 1017 30.03 846 24.98 -0.7 30.7 66 -6.3 20.7
12:45 1017 30.03 846 24.98 -0.5 31.2 64 -6.5 20.3
12:50 1017 30.03 846 24.98 -0.7 30.8 65 -6.4 20.5
12:55 1017 30.03 846 24.98 -1.4 29.5 70 -6.2 20.8
13:00 1017 30.03 846 24.98 -2.2 28 71 -6.8 19.8
13:05 1017 30.03 846 24.98 -2.4 27.8 73 -6.6 20.2
13:10 1017 30.03 846 24.98 -2 28.4 71 -6.6 20.1
13:15 1017 30.03 846 24.98 -2.1 28.3 71 -6.6 20.2
13:20 1017 30.03 846 24.98 -1.3 29.7 68 -6.5 20.2
13:25 1017 30.03 846 24.98 -0.9 30.4 67 -6.3 20.7
13:30 1017 30.03 846 24.98 -1 30.2 67 -6.4 20.4
13:35 1017 30.03 846 24.98 -0.9 30.5 67 -6.2 20.9
13:40 1017 30.03 846 24.98 -0.8 30.5 67 -6.2 20.8
13:45 1017 30.03 846 24.98 -1.1 29.9 68 -6.3 20.7
13:50 1017 30.03 846 24.98 -1.4 29.6 69 -6.2 20.8
13:55 1017 30.03 846 24.98 -1.9 28.5 71 -6.5 20.4
14:00 1017 30.03 846 24.98 -1.8 28.8 70 -6.6 20.1
14:05 1017 30.03 846 24.98 -1.5 29.3 69 -6.5 20.3
14:10 1017 30.03 846 24.98 -1.2 29.9 69 -6.2 20.8
14:15 1017 30.03 846 24.98 -1.2 29.9 68 -6.4 20.4
14:20 1017 30.03 846 24.98 -0.9 30.4 67 -6.2 20.8
14:25 1017 30.03 846 24.98 -0.6 31 65 -6.4 20.4
14:30 1017 30.03 847 25.01 -0.9 30.5 68 -6 21.1
14:35 1017 30.03 847 25.01 -1.5 29.3 68 -6.6 20.1
14:40 1017 30.03 846 24.98 -1.9 28.7 70 -6.7 20
14:45 1017 30.03 846 24.98 -1.5 29.3 67 -6.9 19.6
14:50 1017 30.03 847 25.01 -0.8 30.6 64 -6.7 20
14:55 1017 30.03 847 25.01 -0.8 30.5 65 -6.5 20.3
15:00 1017 30.03 847 25.01 -0.4 31.3 64 -6.4 20.5
15:05 1017 30.03 847 25.01 -0.5 31.2 63 -6.6 20.1
15:10 1018 30.06 847 25.01 -0 31.9 63 -6.3 20.6
15:15 1018 30.06 847 25.01 -0.1 31.8 62 -6.6 20.2
15:20 1018 30.06 847 25.01 -0.3 31.5 64 -6.2 20.8
15:25 1018 30.06 847 25.01 -0.1 31.8 63 -6.4 20.4
15:30 1018 30.06 847 25.01 -0 32 62 -6.5 20.4
15:35 1018 30.06 847 25.01 -0.1 31.7 63 -6.4 20.6
15:40 1018 30.06 847 25.01 -0.3 31.5 64 -6.3 20.6
15:45 1018 30.06 847 25.01 -0.3 31.5 64 -6.3 20.6
15:50 1018 30.06 847 25.01 -0.7 30.7 68 -6 21.2
15:55 1018 30.06 847 25.01 -1.4 29.4 70 -6.2 20.8
16:00 1018 30.06 847 25.01 -1.7 29 70 -6.4 20.6
16:05 1018 30.06 847 25.01 -1.9 28.5 73 -6.2 20.9
16:10 1018 30.06 847 25.01 -2.1 28.2 73 -6.3 20.7
16:15 1018 30.06 847 25.01 -2.5 27.4 75 -6.4 20.5
16:20 1018 30.06 847 25.01 -2.7 27.2 76 -6.3 20.6
16:25 1018 30.06 847 25.01 -2.8 27 77 -6.4 20.6
16:30 1018 30.06 847 25.01 -3 26.6 79 -6.2 20.9
16:35 1018 30.06 848 25.04 -3.3 26 77 -6.7 19.9
16:40 1018 30.06 848 25.04 -3.7 25.3 81 -6.5 20.4
16:45 1018 30.06 848 25.04 -3.9 25 82 -6.5 20.4
16:50 1018 30.06 848 25.04 -4 24.8 83 -6.5 20.4
16:55 1019 30.09 848 25.04 -4.1 24.6 83 -6.5 20.3
17:00 1019 30.09 848 25.04 -4.2 24.5 84 -6.6 20.2
17:05 1019 30.09 848 25.04 -4.3 24.3 84 -6.7 20
17:10 1019 30.09 848 25.04 -4.4 24 83 -6.9 19.6
17:15 1019 30.09 848 25.04 -4.6 23.7 84 -6.9 19.6
17:20 1019 30.09 848 25.04 -4.8 23.4 83 -7.2 19
17:25 1019 30.09 848 25.04 -5.3 22.4 86 -7.3 18.9
17:30 1019 30.09 848 25.04 -5.6 21.9 86 -7.6 18.3
17:35 1019 30.09 848 25.04 -5.8 21.7 87 -7.5 18.4
17:40 1019 30.09 848 25.04 -5.9 21.4 88 -7.6 18.3
17:45 1019 30.09 848 25.04 -6 21.3 88 -7.6 18.2
17:50 1019 30.09 848 25.04 -6.2 20.8 88 -7.8 17.9
17:55 1019 30.09 848 25.04 -6.4 20.4 90 -7.9 17.8
18:00 1019 30.09 848 25.04 -6.6 20.1 90 -7.9 17.7
18:05 1019 30.09 849 25.07 -6.5 20.2 89 -8 17.6
18:10 1019 30.09 849 25.07 -6.5 20.3 89 -8.1 17.5
18:15 1019 30.09 848 25.04 -6.6 20.2 88 -8.2 17.3
18:20 1019 30.09 848 25.04 -6.9 19.6 89 -8.4 17
18:25 1019 30.09 848 25.04 -7.1 19.3 89 -8.6 16.5
18:30 1019 30.09 848 25.04 -7.1 19.2 89 -8.6 16.5
18:35 1019 30.09 848 25.04 -7.1 19.3 88 -8.7 16.4
18:40 1019 30.09 848 25.04 -7.4 18.7 90 -8.8 16.2
18:45 1019 30.09 848 25.04 -7.7 18.1 90 -9.1 15.6
18:50 1019 30.09 848 25.04 -7.8 18 90 -9.1 15.5
18:55 1019 30.09 848 25.04 -7.4 18.6 88 -9.1 15.7
19:00 1019 30.09 849 25.07 -7.1 19.2 86 -9.1 15.6
19:05 1019 30.09 849 25.07 -7.2 19.1 85 -9.2 15.4
19:10 1019 30.09 849 25.07 -7.2 19.1 84 -9.4 15
19:15 1020 30.12 849 25.07 -7.3 18.9 85 -9.5 15
19:20 1020 30.12 849 25.07 -7.2 19 84 -9.5 14.8
19:25 1020 30.12 849 25.07 -7.4 18.7 84 -9.7 14.6
19:30 1020 30.12 849 25.07 -7.4 18.6 83 -9.8 14.3
19:35 1020 30.12 849 25.07 -7.5 18.5 82 -10 14
19:40 1020 30.12 849 25.07 -7.8 18 84 -10.1 13.9
19:45 1020 30.12 849 25.07 -8 17.6 85 -10.1 13.9
19:50 1020 30.12 849 25.07 -8 17.6 85 -10.1 13.8
19:55 1020 30.12 849 25.07 -8.2 17.3 85 -10.3 13.5
20:00 1020 30.12 849 25.07 -8.2 17.2 85 -10.3 13.4
20:05 1020 30.12 849 25.07 -8.5 16.8 85 -10.6 13
20:10 1020 30.12 849 25.07 -8.7 16.3 86 -10.6 12.9
20:15 1020 30.12 849 25.07 -8.1 17.4 86 -10.1 13.8
20:20 1020 30.12 849 25.07 -7.4 18.6 83 -9.9 14.2
20:25 1020 30.12 849 25.07 -7.3 18.9 84 -9.6 14.7
20:30 1020 30.12 849 25.07 -6.9 19.7 81 -9.5 14.8
20:35 1020 30.12 849 25.07 -6.7 19.9 82 -9.3 15.2
20:40 1020 30.12 849 25.07 -7.1 19.2 83 -9.5 15
20:45 1020 30.12 849 25.07 -6.9 19.5 83 -9.4 15.1
20:50 1020 30.12 850 25.1 -6.5 20.3 81 -9.3 15.3
20:55 1020 30.12 850 25.1 -6.4 20.6 81 -9.1 15.6
21:00 1020 30.12 850 25.1 -6.2 20.9 80 -9.1 15.6
21:05 1020 30.12 850 25.1 -5.8 21.5 77 -9.3 15.3
21:10 1020 30.12 850 25.1 -5.5 22 77 -8.9 15.9
21:15 1021 30.15 850 25.1 -5.5 22.1 78 -8.8 16.2
21:20 1021 30.15 850 25.1 -5.8 21.6 80 -8.6 16.5
21:25 1020 30.12 850 25.1 -6.1 21.1 82 -8.7 16.3
21:30 1020 30.12 850 25.1 -6.2 20.8 81 -9 15.8
21:35 1020 30.12 850 25.1 -6.2 20.9 80 -9 15.7
21:40 1020 30.12 850 25.1 -6.1 21.1 80 -8.9 15.9
21:45 1020 30.12 850 25.1 -6.1 21 80 -9.1 15.7
21:50 1020 30.12 850 25.1 -6.4 20.6 81 -9.1 15.7
21:55 1021 30.15 850 25.1 -6.9 19.6 84 -9.2 15.5
22:00 1020 30.12 850 25.1 -7.4 18.7 86 -9.4 15.1
22:05 1020 30.12 850 25.1 -7.2 19.1 84 -9.4 15.1
22:10 1020 30.12 850 25.1 -6.8 19.7 81 -9.6 14.8
22:15 1020 30.12 850 25.1 -6.4 20.5 78 -9.7 14.6
22:20 1020 30.12 850 25.1 -6.5 20.4 81 -9.1 15.5
22:25 1020 30.12 850 25.1 -7 19.5 83 -9.3 15.2
22:30 1020 30.12 850 25.1 -7.3 18.8 84 -9.5 14.9
22:35 1020 30.12 850 25.1 -7.5 18.5 85 -9.6 14.6
22:40 1020 30.12 850 25.1 -7.7 18.1 85 -9.8 14.4
22:45 1020 30.12 850 25.1 -7.9 17.9 87 -9.7 14.6
22:50 1020 30.12 850 25.1 -8.1 17.5 87 -9.9 14.1
22:55 1020 30.12 849 25.07 -8.3 17.1 88 -9.9 14.3
23:00 1020 30.12 849 25.07 -8.3 17 88 -10 14
23:05 1020 30.12 849 25.07 -8.5 16.8 88 -10 13.9
23:10 1020 30.12 849 25.07 -8.2 17.3 87 -10 14
23:15 1020 30.12 849 25.07 -7.8 17.9 82 -10.3 13.4
23:20 1020 30.12 849 25.07 -7.7 18.1 82 -10.3 13.5
23:25 1020 30.12 849 25.07 -8.3 17.1 83 -10.7 12.7
23:30 1020 30.12 850 25.1 -8.7 16.4 85 -10.8 12.6
23:35 1020 30.12 850 25.1 -8.2 17.2 83 -10.6 13
23:40 1021 30.15 850 25.1 -8 17.5 84 -10.3 13.4
23:45 1021 30.15 850 25.1 -8.1 17.4 83 -10.6 12.9
23:50 1021 30.15 850 25.1 -8.3 17 86 -10.3 13.5
23:55 1021 30.15 850 25.1 -8.5 16.7 86 -10.4 13.2
24:00 1021 30.15 850 25.1 -8.7 16.3 87 -10.5 13